createdAt,value
2022-10-19T00:04:13.897Z,6.63
2022-10-19T00:09:20.579Z,6.77
2022-10-19T00:14:25.360Z,6.80
2022-10-19T00:19:29.681Z,6.95
2022-10-19T00:24:34.511Z,6.89
2022-10-19T00:29:37.903Z,6.67
2022-10-19T00:34:41.297Z,6.68
2022-10-19T00:39:46.135Z,6.58
2022-10-19T00:45:04.989Z,6.49
2022-10-19T00:50:10.054Z,6.20
2022-10-19T00:55:15.463Z,6.05
2022-10-19T01:00:19.497Z,6.14
2022-10-19T01:05:22.932Z,6.29
2022-10-19T01:10:39.190Z,6.42
2022-10-19T01:15:48.316Z,6.40
2022-10-19T01:21:20.343Z,6.63
2022-10-19T01:26:45.891Z,6.74
2022-10-19T01:31:57.383Z,6.92
2022-10-19T01:37:05.255Z,6.88
2022-10-19T01:42:15.959Z,7.12
2022-10-19T01:47:24.338Z,7.28
2022-10-19T01:52:29.056Z,7.44
2022-10-19T01:57:36.223Z,7.33
2022-10-19T02:02:46.527Z,7.47
2022-10-19T02:07:56.049Z,7.45
2022-10-19T02:13:00.003Z,7.54
2022-10-19T02:18:30.451Z,7.63
2022-10-19T02:23:34.222Z,7.70
2022-10-19T02:28:38.591Z,7.64
2022-10-19T02:33:43.799Z,7.53
2022-10-19T02:38:47.408Z,7.37
2022-10-19T02:43:58.704Z,7.39
2022-10-19T02:49:05.544Z,7.50
2022-10-19T02:54:10.182Z,7.52
2022-10-19T02:59:13.780Z,7.66
2022-10-19T03:04:18.733Z,7.76
2022-10-19T03:09:22.145Z,7.72
2022-10-19T03:14:25.496Z,7.76
2022-10-19T03:19:30.808Z,7.95
2022-10-19T03:24:34.773Z,8.01
2022-10-19T03:29:38.123Z,8.06
2022-10-19T03:34:42.857Z,8.13
2022-10-19T03:39:46.266Z,8.19
2022-10-19T03:44:49.580Z,8.20
2022-10-19T03:49:54.442Z,8.24
2022-10-19T03:54:58.073Z,8.23
2022-10-19T04:00:01.696Z,8.21
2022-10-19T04:05:16.781Z,8.12
2022-10-19T04:10:20.128Z,8.11
2022-10-19T04:15:23.801Z,7.98
2022-10-19T04:20:28.825Z,7.87
2022-10-19T04:25:32.487Z,7.86
2022-10-19T04:30:35.862Z,7.89
2022-10-19T04:35:40.715Z,7.87
2022-10-19T04:40:44.540Z,7.83
2022-10-19T04:45:47.959Z,7.86
2022-10-19T04:50:56.100Z,8.00
2022-10-19T04:55:59.612Z,8.11
2022-10-19T05:01:09.857Z,8.25
2022-10-19T05:06:16.184Z,8.49
2022-10-19T05:11:20.173Z,8.68
2022-10-19T05:16:25.924Z,8.99
2022-10-19T05:21:30.836Z,9.23
2022-10-19T05:26:34.210Z,9.49
2022-10-19T05:31:37.541Z,9.73
2022-10-19T05:36:42.749Z,10.03
2022-10-19T05:41:47.467Z,10.27
2022-10-19T05:46:52.166Z,10.50
2022-10-19T05:51:57.172Z,10.62
2022-10-19T05:57:01.149Z,10.89
2022-10-19T06:02:04.986Z,10.99
2022-10-19T06:07:09.778Z,11.14
2022-10-19T06:12:14.883Z,11.21
2022-10-19T06:17:19.774Z,11.30
2022-10-19T06:22:24.797Z,11.55
2022-10-19T06:27:28.206Z,11.62
2022-10-19T06:32:33.975Z,11.72
2022-10-19T06:37:38.954Z,11.87
2022-10-19T06:42:42.376Z,12.07
2022-10-19T06:52:57.570Z,12.77
2022-10-19T06:58:01.910Z,13.06
2022-10-19T07:03:05.640Z,13.29
2022-10-19T07:08:10.583Z,13.41
2022-10-19T07:13:14.157Z,13.77
2022-10-19T07:18:17.587Z,13.98
2022-10-19T07:23:22.675Z,14.11
2022-10-19T07:28:26.378Z,14.61
2022-10-19T07:33:29.849Z,15.00
2022-10-19T07:38:35.759Z,15.17
2022-10-19T07:43:39.291Z,15.56
2022-10-19T07:48:43.077Z,15.85
2022-10-19T07:53:47.954Z,16.23
2022-10-19T07:58:53.830Z,16.63
2022-10-19T08:04:55.364Z,16.64
2022-10-19T08:09:50.907Z,16.83
2022-10-19T08:14:48.208Z,17.26
2022-10-19T08:19:51.872Z,17.67
2022-10-19T08:24:56.687Z,17.71
2022-10-19T08:30:00.066Z,17.96
2022-10-19T08:35:06.065Z,18.18
2022-10-19T08:40:20.152Z,18.61
2022-10-19T08:45:43.291Z,18.85
2022-10-19T08:50:48.310Z,19.19
2022-10-19T08:56:06.467Z,19.50
2022-10-19T09:01:15.366Z,19.51
2022-10-19T09:06:26.569Z,19.67
2022-10-19T09:11:34.387Z,19.99
2022-10-19T09:16:37.875Z,20.21
2022-10-19T09:21:47.903Z,20.01
2022-10-19T09:26:54.609Z,20.73
2022-10-19T09:32:01.597Z,21.07
2022-10-19T09:37:05.561Z,20.80
2022-10-19T09:42:18.562Z,21.51
2022-10-19T09:47:34.302Z,21.29
2022-10-19T09:52:39.895Z,21.56
2022-10-19T09:57:45.916Z,21.82
2022-10-19T10:02:53.173Z,21.51
2022-10-19T10:07:56.946Z,21.27
2022-10-19T10:13:02.256Z,22.02
2022-10-19T10:18:05.854Z,22.68
2022-10-19T10:23:25.055Z,23.03
2022-10-19T10:28:31.435Z,22.39
2022-10-19T10:33:45.033Z,22.58
2022-10-19T10:38:53.208Z,22.89
2022-10-19T10:44:04.568Z,22.96
2022-10-19T10:49:17.900Z,23.14
2022-10-19T10:54:23.081Z,23.27
2022-10-19T10:59:32.405Z,23.87
2022-10-19T11:04:42.404Z,23.48
2022-10-19T11:09:52.201Z,23.65
2022-10-19T11:15:05.131Z,23.00
2022-10-19T11:20:15.284Z,23.18
2022-10-19T11:25:31.355Z,23.39
2022-10-19T11:30:42.847Z,23.48
2022-10-19T11:35:53.276Z,24.00
2022-10-19T11:41:24.380Z,23.27
2022-10-19T11:46:37.112Z,23.30
2022-10-19T11:51:47.157Z,22.90
2022-10-19T11:57:04.721Z,23.49
2022-10-19T12:02:32.819Z,23.25
2022-10-19T12:07:57.854Z,23.81
2022-10-19T12:13:04.818Z,22.82
2022-10-19T12:18:17.529Z,23.06
2022-10-19T12:23:29.482Z,22.84
2022-10-19T12:28:35.266Z,22.14
2022-10-19T12:33:47.451Z,21.66
2022-10-19T12:39:01.015Z,21.42
2022-10-19T12:44:21.148Z,21.28
2022-10-19T12:49:45.957Z,21.16
2022-10-19T12:54:49.629Z,20.81
2022-10-19T13:00:02.130Z,20.73
2022-10-19T13:05:08.676Z,20.69
2022-10-19T13:10:22.674Z,20.70
2022-10-19T13:15:52.742Z,20.47
2022-10-19T13:20:58.740Z,20.23
2022-10-19T13:26:35.603Z,20.13
2022-10-19T13:31:39.354Z,20.02
2022-10-19T13:37:01.417Z,20.11
2022-10-19T13:42:04.856Z,19.98
2022-10-19T13:47:34.488Z,19.96
2022-10-19T13:52:55.096Z,19.73
2022-10-19T13:58:24.156Z,19.56
2022-10-19T14:03:40.987Z,19.62
2022-10-19T14:09:14.067Z,19.51
2022-10-19T14:14:20.314Z,19.44
2022-10-19T14:19:28.244Z,19.39
2022-10-19T14:24:37.082Z,19.27
2022-10-19T14:29:47.098Z,19.24
2022-10-19T14:34:51.125Z,19.08
2022-10-19T14:40:08.984Z,18.94
2022-10-19T14:45:18.261Z,18.74
2022-10-19T14:50:24.886Z,18.60
2022-10-19T14:55:37.453Z,18.49
2022-10-19T15:00:41.315Z,18.30
2022-10-19T15:05:49.417Z,18.06
2022-10-19T15:10:54.790Z,17.86
2022-10-19T15:15:58.240Z,17.70
2022-10-19T15:21:12.296Z,17.50
2022-10-19T15:26:28.281Z,17.35
2022-10-19T15:31:31.785Z,17.13
2022-10-19T15:36:35.152Z,16.93
2022-10-19T15:41:41.192Z,16.82
2022-10-19T15:47:19.338Z,16.70
2022-10-19T15:52:24.107Z,16.53
2022-10-19T15:57:31.997Z,16.43
2022-10-19T16:02:35.657Z,16.30
2022-10-19T16:07:41.338Z,16.18
2022-10-19T16:12:46.211Z,16.09
2022-10-19T16:17:51.174Z,16.01
2022-10-19T16:22:54.900Z,15.94
2022-10-19T16:27:59.925Z,15.85
2022-10-19T16:33:03.549Z,15.78
2022-10-19T16:38:06.931Z,15.65
2022-10-19T16:43:11.688Z,15.55
2022-10-19T16:48:15.396Z,15.50
2022-10-19T16:53:18.804Z,15.43
2022-10-19T16:58:23.548Z,15.35
2022-10-19T17:03:26.910Z,15.33
2022-10-19T17:08:36.975Z,15.29
2022-10-19T17:13:58.689Z,15.29
2022-10-19T17:19:03.276Z,15.25
2022-10-19T17:24:08.796Z,15.14
2022-10-19T17:29:13.763Z,14.87
2022-10-19T17:34:17.424Z,14.51
2022-10-19T17:39:25.717Z,14.18
2022-10-19T17:44:35.012Z,14.16
2022-10-19T17:49:38.605Z,14.26
2022-10-19T17:54:54.387Z,14.15
2022-10-19T18:00:09.383Z,14.17
2022-10-19T18:05:16.105Z,14.14
2022-10-19T18:10:19.592Z,14.04
2022-10-19T18:15:24.348Z,14.00
2022-10-19T18:20:28.395Z,13.92
2022-10-19T18:25:52.848Z,13.94
2022-10-19T18:30:56.543Z,13.94
2022-10-19T18:36:00.160Z,13.88
2022-10-19T18:41:03.854Z,13.83
2022-10-19T18:46:10.112Z,13.79
2022-10-19T18:51:15.520Z,13.74
2022-10-19T18:56:21.232Z,13.70
2022-10-19T19:01:28.163Z,13.58
2022-10-19T19:06:34.500Z,13.58
2022-10-19T19:11:41.036Z,13.47
2022-10-19T19:16:47.226Z,13.42
2022-10-19T19:21:50.595Z,13.32
2022-10-19T19:26:55.368Z,13.30
2022-10-19T19:32:00.154Z,12.96
2022-10-19T19:37:06.153Z,12.85
2022-10-19T19:42:12.256Z,12.76
2022-10-19T19:47:19.391Z,12.55
2022-10-19T19:52:22.764Z,12.52
2022-10-19T19:57:26.298Z,12.45
2022-10-19T20:02:32.951Z,12.38
2022-10-19T20:07:36.641Z,12.19
2022-10-19T20:12:40.203Z,12.20
2022-10-19T20:17:45.877Z,12.34
2022-10-19T20:22:50.544Z,12.37
2022-10-19T20:27:54.163Z,11.91
2022-10-19T20:32:59.628Z,11.83
2022-10-19T20:38:03.925Z,11.62
2022-10-19T20:43:07.588Z,11.53
2022-10-19T20:48:12.572Z,11.30
2022-10-19T20:53:15.876Z,11.40
2022-10-19T20:58:19.283Z,11.27
2022-10-19T21:03:24.143Z,11.25
2022-10-19T21:08:27.593Z,10.98
2022-10-19T21:13:30.990Z,11.10
2022-10-19T21:18:36.096Z,10.98
2022-10-19T21:23:39.656Z,10.87
2022-10-19T21:28:48.718Z,10.92
2022-10-19T21:33:54.377Z,11.12
2022-10-19T21:38:57.695Z,11.13
2022-10-19T21:44:01.708Z,10.95
2022-10-19T21:49:06.494Z,10.98
2022-10-19T21:54:13.702Z,10.93
2022-10-19T21:59:17.727Z,11.02
2022-10-19T22:04:22.901Z,11.05
2022-10-19T22:09:26.270Z,10.75
2022-10-19T22:14:29.863Z,10.84
2022-10-19T22:19:35.039Z,10.96
2022-10-19T22:24:38.815Z,10.96
2022-10-19T22:29:42.247Z,10.84
2022-10-19T22:34:47.403Z,11.05
2022-10-19T22:39:50.746Z,11.09
2022-10-19T22:44:54.068Z,11.16
2022-10-19T22:49:58.844Z,11.12
2022-10-19T22:55:02.183Z,11.10
2022-10-19T23:00:07.212Z,11.16
2022-10-19T23:05:12.199Z,11.17
2022-10-19T23:10:15.617Z,11.17
2022-10-19T23:15:19.392Z,11.01
2022-10-19T23:20:24.081Z,11.03
2022-10-19T23:25:27.491Z,11.11
2022-10-19T23:30:30.851Z,11.08
2022-10-19T23:35:35.737Z,11.03
2022-10-19T23:40:39.093Z,11.03
2022-10-19T23:45:42.427Z,10.95
2022-10-19T23:50:47.283Z,11.08
2022-10-19T23:55:50.663Z,11.26
